Time;durP1;ratioP1;P1;durP2;ratioP2;P2;SDS_P1;SDS_P2;PMS_P1;PMS_P2;Temp;Humidity;BMP_temperature;BMP_pressure;BME280_temperature;BME280_humidity;BME280_pressure;Samples;Min_cycle;Max_cycle;Signal;HPM_P1;HPM_P2
2024/04/10 00:01:16;;;;;;;1.97;1.40;;;9.10;58.10;;;;;;5378479;26;20300;-66
2024/04/10 00:03:44;;;;;;;1.27;1.27;;;9.10;59.00;;;;;;5379024;26;20394;-67
2024/04/10 00:06:10;;;;;;;2.90;1.50;;;9.30;58.30;;;;;;5378537;26;20282;-67
2024/04/10 00:08:38;;;;;;;1.60;1.47;;;9.20;58.20;;;;;;5364160;26;20239;-67
2024/04/10 00:11:03;;;;;;;1.20;1.20;;;9.20;58.20;;;;;;5380943;26;20370;-67
2024/04/10 00:13:32;;;;;;;1.20;1.20;;;9.10;58.80;;;;;;5381792;26;20255;-67
2024/04/10 00:15:57;;;;;;;2.47;1.37;;;9.20;59.80;;;;;;5371749;26;20292;-67
2024/04/10 00:18:25;;;;;;;1.10;1.10;;;9.30;59.80;;;;;;5375389;26;20235;-67
2024/04/10 00:20:51;;;;;;;1.40;1.30;;;9.20;58.50;;;;;;5382222;26;20373;-67
2024/04/10 00:23:20;;;;;;;2.00;1.30;;;9.00;59.70;;;;;;5382023;26;20243;-66
2024/04/10 00:25:46;;;;;;;1.40;1.30;;;9.00;60.00;;;;;;5381339;26;20239;-67
2024/04/10 00:28:14;;;;;;;1.40;1.30;;;9.10;60.40;;;;;;5380721;26;20286;-67
2024/04/10 00:30:40;;;;;;;1.10;1.10;;;9.20;59.60;;;;;;5367600;26;20361;-67
2024/04/10 00:33:08;;;;;;;1.40;1.30;;;9.10;60.00;;;;;;5373183;26;20264;-67
2024/04/10 00:35:33;;;;;;;1.30;1.20;;;9.20;60.00;;;;;;5377469;26;20237;-66
2024/04/10 00:38:02;;;;;;;1.77;1.30;;;9.20;60.10;;;;;;5381873;26;20325;-67
2024/04/10 00:40:27;;;;;;;1.33;1.20;;;9.30;59.40;;;;;;5368255;26;20245;-67
2024/04/10 00:42:55;;;;;;;1.43;1.37;;;9.20;59.70;;;;;;5361278;26;20330;-67
2024/04/10 00:45:21;;;;;;;1.40;1.30;;;9.20;60.00;;;;;;5374903;26;20354;-68
2024/04/10 00:47:49;;;;;;;1.43;1.20;;;9.10;59.60;;;;;;5371122;26;20251;-67
2024/04/10 00:50:15;;;;;;;2.53;1.50;;;9.00;60.40;;;;;;5378307;26;20283;-67
2024/04/10 00:52:44;;;;;;;3.23;1.50;;;9.00;61.00;;;;;;5358285;26;20659;-66
2024/04/10 00:55:09;;;;;;;2.00;1.33;;;9.10;61.00;;;;;;5366110;26;20774;-67
2024/04/10 00:57:38;;;;;;;1.40;1.30;;;9.10;61.90;;;;;;5370776;26;20333;-67
2024/04/10 01:00:04;;;;;;;1.70;1.60;;;9.10;60.80;;;;;;5379501;26;20236;-67
2024/04/10 01:02:32;;;;;;;2.53;1.50;;;9.00;60.90;;;;;;5379508;26;20243;-67
2024/04/10 01:04:58;;;;;;;2.20;1.77;;;8.90;60.70;;;;;;5379840;26;20753;-67
2024/04/10 01:07:26;;;;;;;1.60;1.50;;;8.80;60.70;;;;;;5378065;26;20337;-68
2024/04/10 01:09:52;;;;;;;1.50;1.40;;;8.80;62.00;;;;;;5367289;26;20300;-67
2024/04/10 01:12:20;;;;;;;1.50;1.40;;;8.90;60.90;;;;;;5358429;26;20252;-67
2024/04/10 01:14:47;;;;;;;1.73;1.40;;;8.80;61.00;;;;;;5364202;26;20369;-67
2024/04/10 01:17:15;;;;;;;1.67;1.40;;;8.80;60.50;;;;;;5376074;26;20307;-67
2024/04/10 01:19:41;;;;;;;1.50;1.40;;;9.00;60.90;;;;;;5375072;26;20630;-67
2024/04/10 01:22:09;;;;;;;1.53;1.43;;;9.00;60.70;;;;;;5373459;26;20243;-67
2024/04/10 01:24:35;;;;;;;1.47;1.37;;;9.10;60.70;;;;;;5369494;26;20749;-67
2024/04/10 01:27:03;;;;;;;1.73;1.50;;;9.00;59.90;;;;;;5373561;26;20326;-67
2024/04/10 01:29:32;;;;;;;2.10;1.80;;;9.00;61.30;;;;;;5375075;26;20290;-67
2024/04/10 01:31:57;;;;;;;1.67;1.40;;;9.00;60.20;;;;;;5379943;26;20336;-67
2024/04/10 01:34:25;;;;;;;1.60;1.50;;;9.00;60.00;;;;;;5380969;26;20240;-67
2024/04/10 01:36:52;;;;;;;1.70;1.50;;;8.80;60.30;;;;;;5381250;26;20694;-67
2024/04/10 01:39:20;;;;;;;2.13;1.67;;;8.80;61.70;;;;;;5372018;26;20592;-68
2024/04/10 01:41:46;;;;;;;1.67;1.57;;;8.80;60.00;;;;;;5365675;26;20252;-67
2024/04/10 01:44:14;;;;;;;2.40;1.47;;;8.70;60.20;;;;;;5379507;26;20270;-67
2024/04/10 01:46:40;;;;;;;1.60;1.50;;;8.90;60.20;;;;;;5380603;26;20252;-67
2024/04/10 01:49:08;;;;;;;2.33;1.40;;;8.70;59.70;;;;;;5380572;26;20340;-67
2024/04/10 01:51:34;;;;;;;1.93;1.67;;;8.90;60.10;;;;;;5377662;26;20275;-67
2024/04/10 01:54:02;;;;;;;1.70;1.60;;;8.90;60.10;;;;;;5378813;26;20247;-66
2024/04/10 01:56:27;;;;;;;1.80;1.70;;;8.90;61.00;;;;;;5368905;26;20344;-67
2024/04/10 01:58:56;;;;;;;1.97;1.70;;;8.80;60.60;;;;;;5376019;26;20251;-67
2024/04/10 02:01:21;;;;;;;2.57;1.80;;;8.90;60.70;;;;;;5362947;26;20297;-66
2024/04/10 02:03:49;;;;;;;1.60;1.50;;;8.80;59.40;;;;;;5354960;26;20348;-67
2024/04/10 02:06:15;;;;;;;1.80;1.50;;;8.80;61.90;;;;;;5368194;26;20862;-67
2024/04/10 02:08:43;;;;;;;1.87;1.60;;;8.80;59.50;;;;;;5377513;26;20255;-67
2024/04/10 02:11:25;;;;;;;2.20;1.77;;;8.90;60.10;;;;;;5380686;26;20283;-67
2024/04/10 02:13:53;;;;;;;1.97;1.77;;;8.80;59.30;;;;;;5379661;26;20236;-66
2024/04/10 02:16:19;;;;;;;1.57;1.40;;;8.80;58.60;;;;;;5372337;26;20239;-67
2024/04/10 02:18:47;;;;;;;1.60;1.50;;;8.90;60.10;;;;;;5377577;26;20337;-66
2024/04/10 02:21:12;;;;;;;2.40;1.70;;;8.80;59.20;;;;;;5375693;26;20843;-67
2024/04/10 02:23:41;;;;;;;1.50;1.40;;;8.80;60.20;;;;;;5378761;26;20239;-67
2024/04/10 02:26:06;;;;;;;1.70;1.60;;;8.70;59.60;;;;;;5361824;26;20239;-67
2024/04/10 02:28:35;;;;;;;1.43;1.30;;;8.60;59.60;;;;;;5380966;26;20277;-67
2024/04/10 02:31:00;;;;;;;2.03;1.30;;;8.60;60.40;;;;;;5381525;26;20286;-67
2024/04/10 02:33:33;;;;;;;1.67;1.57;;;8.70;59.90;;;;;;5379575;26;20251;-67
2024/04/10 02:35:59;;;;;;;1.70;1.60;;;8.90;58.80;;;;;;5367734;26;20271;-67
2024/04/10 02:38:28;;;;;;;2.13;1.60;;;8.80;58.10;;;;;;5380682;26;20243;-67
2024/04/10 02:40:53;;;;;;;2.10;1.50;;;8.80;58.50;;;;;;5367874;26;20240;-67
2024/04/10 02:43:21;;;;;;;2.40;1.50;;;8.70;58.80;;;;;;5371156;26;20348;-67
2024/04/10 02:45:47;;;;;;;2.23;2.03;;;8.60;58.30;;;;;;5379566;26;20243;-67
2024/04/10 02:48:15;;;;;;;1.60;1.50;;;8.70;58.60;;;;;;5380279;26;20803;-67
2024/04/10 02:50:41;;;;;;;2.00;1.80;;;8.50;59.00;;;;;;5373692;26;20243;-67
2024/04/10 02:53:09;;;;;;;1.70;1.60;;;8.60;59.50;;;;;;5380172;26;20265;-67
2024/04/10 02:55:35;;;;;;;1.50;1.40;;;8.60;58.70;;;;;;5379373;26;20298;-67
2024/04/10 02:58:03;;;;;;;1.50;1.40;;;8.70;58.60;;;;;;5367678;26;20716;-67
2024/04/10 03:00:31;;;;;;;2.23;1.60;;;8.70;58.70;;;;;;5378426;26;20585;-67
2024/04/10 03:02:57;;;;;;;1.60;1.50;;;8.60;59.10;;;;;;5365810;26;20343;-66
2024/04/10 03:05:25;;;;;;;2.27;1.57;;;8.60;58.80;;;;;;5377610;26;20741;-66
2024/04/10 03:07:51;;;;;;;1.87;1.60;;;8.60;59.00;;;;;;5378938;26;20274;-67
2024/04/10 03:10:19;;;;;;;1.47;1.40;;;8.60;58.10;;;;;;5379953;26;20243;-67
2024/04/10 03:12:45;;;;;;;2.97;1.63;;;8.60;58.90;;;;;;5379980;26;20314;-67
2024/04/10 03:15:16;;;;;;;1.43;1.27;;;8.50;59.10;;;;;;5371943;26;20686;-67
2024/04/10 03:17:41;;;;;;;1.67;1.37;;;8.60;59.70;;;;;;5365231;26;20803;-66
2024/04/10 03:20:10;;;;;;;1.60;1.50;;;8.60;59.20;;;;;;5374658;26;20255;-67
2024/04/10 03:22:36;;;;;;;1.57;1.47;;;8.60;59.30;;;;;;5377042;26;20243;-67
2024/04/10 03:25:04;;;;;;;1.77;1.67;;;8.70;59.30;;;;;;5371030;26;20277;-67
2024/04/10 03:27:30;;;;;;;2.30;1.63;;;8.50;59.60;;;;;;5373640;26;20278;-69
2024/04/10 03:29:58;;;;;;;2.30;1.70;;;8.60;59.20;;;;;;5372636;26;20969;-66
2024/04/10 03:32:24;;;;;;;2.10;1.60;;;8.50;59.70;;;;;;5357423;26;20366;-67
2024/04/10 03:34:52;;;;;;;1.30;1.30;;;8.70;59.80;;;;;;5378534;26;20259;-67
2024/04/10 03:37:18;;;;;;;2.20;1.50;;;8.60;59.50;;;;;;5379658;26;20286;-67
2024/04/10 03:39:46;;;;;;;1.70;1.50;;;8.60;59.20;;;;;;5375574;26;20747;-67
2024/04/10 03:42:12;;;;;;;1.50;1.40;;;8.70;59.10;;;;;;5379300;26;20267;-67
2024/04/10 03:44:40;;;;;;;4.23;1.60;;;8.70;59.40;;;;;;5377644;26;20348;-67
2024/04/10 03:47:08;;;;;;;2.00;1.50;;;8.70;58.20;;;;;;5379077;26;20279;-67
2024/04/10 03:49:37;;;;;;;1.53;1.40;;;8.70;57.80;;;;;;5359059;26;20303;-67
2024/04/10 03:52:02;;;;;;;2.67;1.63;;;8.60;57.70;;;;;;5366520;26;20324;-67
2024/04/10 03:54:31;;;;;;;2.80;1.53;;;8.70;57.70;;;;;;5379234;26;20239;-67
2024/04/10 03:56:56;;;;;;;2.00;1.60;;;8.40;59.00;;;;;;5365631;26;20277;-67
2024/04/10 03:59:25;;;;;;;2.70;1.70;;;8.50;58.90;;;;;;5379050;26;20254;-67
2024/04/10 04:01:50;;;;;;;1.60;1.50;;;8.60;58.30;;;;;;5378280;26;20778;-67
2024/04/10 04:04:18;;;;;;;1.63;1.43;;;8.60;58.70;;;;;;5379033;26;20332;-67
2024/04/10 04:06:45;;;;;;;2.13;1.50;;;8.60;58.60;;;;;;5374322;26;20246;-67
2024/04/10 04:09:13;;;;;;;2.03;1.70;;;8.40;58.20;;;;;;5364363;26;20235;-67
2024/04/10 04:11:39;;;;;;;2.70;1.70;;;8.40;58.60;;;;;;5378613;26;20670;-67
2024/04/10 04:14:07;;;;;;;1.67;1.57;;;8.40;58.50;;;;;;5375360;26;20274;-67
2024/04/10 04:16:34;;;;;;;1.77;1.67;;;8.40;58.60;;;;;;5373505;26;20687;-67
2024/04/10 04:19:02;;;;;;;1.57;1.43;;;8.30;58.80;;;;;;5379127;26;20741;-67
2024/04/10 04:21:28;;;;;;;1.83;1.57;;;8.30;58.20;;;;;;5378230;26;20306;-67
2024/04/10 04:23:56;;;;;;;2.33;1.70;;;8.40;59.20;;;;;;5372546;26;20250;-67
2024/04/10 04:26:22;;;;;;;2.37;1.70;;;8.60;58.60;;;;;;5360337;26;20277;-67
2024/04/10 04:28:50;;;;;;;5.27;4.50;;;8.50;58.30;;;;;;5367778;26;20243;-67
2024/04/10 04:31:17;;;;;;;2.10;1.90;;;8.40;59.20;;;;;;5375483;26;20277;-67
2024/04/10 04:33:45;;;;;;;2.57;1.50;;;8.50;58.70;;;;;;5378066;26;20239;-67
2024/04/10 04:36:10;;;;;;;1.60;1.50;;;8.50;58.30;;;;;;5378501;26;20745;-67
2024/04/10 04:38:39;;;;;;;2.20;1.87;;;8.60;59.10;;;;;;5375999;26;20350;-67
2024/04/10 04:41:04;;;;;;;2.37;1.50;;;8.60;58.30;;;;;;5366716;26;20235;-67
2024/04/10 04:43:33;;;;;;;2.97;1.60;;;8.60;58.60;;;;;;5346297;26;20291;-66
2024/04/10 04:46:00;;;;;;;2.23;1.63;;;8.60;58.70;;;;;;5377132;26;20244;-67
2024/04/10 04:48:28;;;;;;;2.40;1.70;;;8.60;58.70;;;;;;5374314;26;20791;-67
2024/04/10 04:50:54;;;;;;;1.70;1.60;;;8.60;59.50;;;;;;5360864;26;20723;-67
2024/04/10 04:53:22;;;;;;;1.77;1.67;;;8.70;58.80;;;;;;5366781;26;20251;-66
2024/04/10 04:55:48;;;;;;;1.57;1.47;;;8.60;58.20;;;;;;5376325;26;20277;-66
2024/04/10 04:58:17;;;;;;;1.70;1.60;;;8.60;59.10;;;;;;5369765;26;20239;-67
2024/04/10 05:00:42;;;;;;;1.70;1.60;;;8.50;58.80;;;;;;5369451;26;20339;-67
2024/04/10 05:04:54;;;;;;;1.67;1.57;;;8.70;58.50;;;;;;5376845;26;20254;-67
2024/04/10 05:05:57;;;;;;;3.50;1.80;;;8.70;59.30;;;;;;5370019;26;20231;-67
2024/04/10 05:08:25;;;;;;;1.70;1.60;;;8.60;58.30;;;;;;5381045;26;20281;-66
2024/04/10 05:10:53;;;;;;;1.70;1.60;;;8.70;58.50;;;;;;5375237;26;20240;-67
2024/04/10 05:13:19;;;;;;;1.70;1.50;;;8.70;58.20;;;;;;5373480;26;20354;-67
2024/04/10 05:15:47;;;;;;;2.53;1.67;;;8.70;58.20;;;;;;5376077;26;20244;-67
2024/04/10 05:18:13;;;;;;;2.33;1.70;;;8.70;58.40;;;;;;5373099;26;20239;-67
2024/04/10 05:20:41;;;;;;;2.87;1.60;;;8.50;59.00;;;;;;5364788;26;20918;-67
2024/04/10 05:23:07;;;;;;;1.73;1.63;;;8.60;58.20;;;;;;5378059;26;20263;-67
2024/04/10 05:25:35;;;;;;;2.07;1.70;;;8.70;57.80;;;;;;5365574;26;20245;-67
2024/04/10 05:28:01;;;;;;;1.97;1.70;;;8.70;57.80;;;;;;5380076;26;20322;-67
2024/04/10 05:30:29;;;;;;;1.70;1.60;;;8.80;57.80;;;;;;5379328;26;20348;-66
2024/04/10 05:32:55;;;;;;;2.07;1.90;;;8.70;58.10;;;;;;5360644;26;20251;-67
2024/04/10 05:35:23;;;;;;;1.60;1.50;;;8.80;57.80;;;;;;5365155;26;20279;-67
2024/04/10 05:37:49;;;;;;;2.03;1.67;;;8.80;58.30;;;;;;5380395;26;20277;-67
2024/04/10 05:40:17;;;;;;;1.70;1.60;;;8.80;57.80;;;;;;5365822;26;20238;-66
2024/04/10 05:42:42;;;;;;;2.20;1.60;;;8.90;57.30;;;;;;5380129;26;20360;-67
2024/04/10 05:45:11;;;;;;;2.43;1.70;;;8.90;56.60;;;;;;5380042;26;20243;-66
2024/04/10 05:47:36;;;;;;;5.20;1.60;;;8.80;55.80;;;;;;5380088;26;20239;-67
2024/04/10 05:50:05;;;;;;;3.37;1.67;;;8.80;57.70;;;;;;5370458;26;20254;-67
2024/04/10 05:52:31;;;;;;;2.47;1.80;;;8.70;57.10;;;;;;5370301;26;20622;-67
2024/04/10 05:54:59;;;;;;;3.03;2.00;;;8.80;57.70;;;;;;5379534;26;20254;-67
2024/04/10 05:57:26;;;;;;;2.07;1.87;;;8.80;57.80;;;;;;5366929;26;20678;-67
2024/04/10 05:59:55;;;;;;;2.37;1.60;;;8.80;57.20;;;;;;5365836;26;20251;-68
2024/04/10 06:02:20;;;;;;;3.23;1.77;;;8.80;56.80;;;;;;5351975;26;20730;-68
2024/04/10 06:04:48;;;;;;;1.80;1.70;;;8.70;57.10;;;;;;5368245;26;20252;-67
2024/04/10 06:07:14;;;;;;;2.53;1.80;;;8.80;57.00;;;;;;5350179;26;20274;-68
2024/04/10 06:09:42;;;;;;;2.47;2.23;;;8.90;56.70;;;;;;5360809;26;20694;-67
2024/04/10 06:12:08;;;;;;;1.60;1.50;;;8.90;56.80;;;;;;5364950;26;20687;-67
2024/04/10 06:14:37;;;;;;;4.97;1.90;;;8.90;56.70;;;;;;5377074;26;20550;-66
2024/04/10 06:17:02;;;;;;;3.07;2.23;;;9.00;56.70;;;;;;5378869;26;20714;-67
2024/04/10 06:19:30;;;;;;;2.17;1.97;;;9.00;56.60;;;;;;5365306;26;20285;-67
2024/04/10 06:21:56;;;;;;;1.53;1.43;;;9.00;57.30;;;;;;5378089;26;20303;-67
2024/04/10 06:24:24;;;;;;;2.10;2.00;;;9.10;56.10;;;;;;5378710;26;20236;-69
2024/04/10 06:26:50;;;;;;;2.13;1.80;;;9.00;57.20;;;;;;5361531;26;20251;-65
2024/04/10 06:29:18;;;;;;;2.33;1.80;;;9.00;56.20;;;;;;5366640;26;20256;-67
2024/04/10 06:31:44;;;;;;;2.53;1.50;;;9.10;56.20;;;;;;5368509;26;20255;-68
2024/04/10 06:34:13;;;;;;;2.03;1.40;;;9.10;56.10;;;;;;5352888;26;20293;-67
2024/04/10 06:36:38;;;;;;;3.10;1.60;;;9.00;55.70;;;;;;5360336;26;20278;-67
2024/04/10 06:39:08;;;;;;;1.70;1.60;;;9.10;56.80;;;;;;5366959;26;20240;-67
2024/04/10 06:41:33;;;;;;;1.77;1.50;;;9.20;56.40;;;;;;5355774;26;20345;-67
2024/04/10 06:44:02;;;;;;;1.90;1.70;;;9.10;56.60;;;;;;5358741;26;20585;-67
2024/04/10 06:46:27;;;;;;;2.23;1.70;;;9.20;56.20;;;;;;5360873;26;20251;-67
2024/04/10 06:48:56;;;;;;;2.50;1.70;;;9.30;56.00;;;;;;5359829;26;20773;-67
2024/04/10 06:51:21;;;;;;;1.87;1.77;;;9.20;56.30;;;;;;5352619;26;20605;-66
2024/04/10 06:53:49;;;;;;;1.90;1.70;;;9.30;55.90;;;;;;5377512;26;20281;-67
2024/04/10 06:56:15;;;;;;;2.70;2.10;;;9.30;55.90;;;;;;5361014;26;20336;-66
2024/04/10 06:58:43;;;;;;;1.97;1.63;;;9.20;56.30;;;;;;5368188;26;20251;-66
2024/04/10 07:01:09;;;;;;;2.70;2.07;;;9.30;55.90;;;;;;5368133;26;20337;-66
2024/04/10 07:03:37;;;;;;;3.33;1.80;;;9.40;55.50;;;;;;5374397;26;20740;-66
2024/04/10 07:06:03;;;;;;;2.07;1.90;;;9.20;55.60;;;;;;5362248;26;20283;-66
2024/04/10 07:08:31;;;;;;;3.00;1.80;;;9.20;56.10;;;;;;5357845;26;20247;-66
2024/04/10 07:10:57;;;;;;;2.97;2.03;;;9.30;55.80;;;;;;5368720;26;20348;-66
2024/04/10 07:13:25;;;;;;;3.70;1.87;;;9.30;55.70;;;;;;5370357;26;20356;-66
2024/04/10 07:15:51;;;;;;;3.60;1.67;;;9.30;55.20;;;;;;5368660;26;20287;-66
2024/04/10 07:18:19;;;;;;;2.77;1.80;;;9.30;55.30;;;;;;5361276;26;20292;-66
2024/04/10 07:20:45;;;;;;;2.20;1.80;;;9.40;54.70;;;;;;5364838;26;20326;-67
2024/04/10 07:23:13;;;;;;;1.80;1.70;;;9.40;55.60;;;;;;5370776;26;20259;-67
2024/04/10 07:25:39;;;;;;;2.20;2.10;;;9.30;55.60;;;;;;5356394;26;20688;-66
2024/04/10 07:28:07;;;;;;;3.37;2.23;;;9.30;56.50;;;;;;5352809;26;20309;-66
2024/04/10 07:30:33;;;;;;;3.93;2.13;;;9.30;55.50;;;;;;5335275;26;20308;-66
2024/04/10 07:33:03;;;;;;;3.43;1.90;;;9.30;55.90;;;;;;5375078;26;20349;-66
2024/04/10 07:35:29;;;;;;;3.57;2.00;;;9.40;56.00;;;;;;5363135;26;20289;-67
2024/04/10 07:37:57;;;;;;;4.10;2.10;;;9.50;55.70;;;;;;5363750;26;20248;-64
2024/04/10 07:42:02;;;;;;;1.97;1.87;;;9.40;55.00;;;;;;5555095;25;21084;-63
2024/04/10 07:44:28;;;;;;;2.00;1.80;;;9.40;55.20;;;;;;5530446;25;20301;-63
2024/04/10 07:46:56;;;;;;;2.70;2.00;;;9.50;56.10;;;;;;5514778;25;20256;-64
2024/04/10 07:49:21;;;;;;;2.63;2.10;;;9.60;55.50;;;;;;5463575;25;20262;-64
2024/04/10 07:51:50;;;;;;;2.97;2.20;;;9.60;55.60;;;;;;5413384;26;20348;-64
2024/04/10 07:54:16;;;;;;;3.53;2.40;;;9.60;55.60;;;;;;5428648;26;20736;-64
2024/04/10 07:56:44;;;;;;;3.47;2.10;;;9.60;55.40;;;;;;5415187;26;20247;-64
2024/04/10 07:59:09;;;;;;;2.07;1.90;;;9.60;54.70;;;;;;5424478;26;20241;-64
2024/04/10 08:01:38;;;;;;;2.97;2.40;;;9.60;54.80;;;;;;5423231;26;20355;-64
2024/04/10 08:04:06;;;;;;;2.70;2.20;;;9.40;55.80;;;;;;5420158;26;20650;-63
2024/04/10 08:06:36;;;;;;;2.10;2.00;;;9.50;55.20;;;;;;5429484;26;20234;-64
2024/04/10 08:09:02;;;;;;;6.03;2.80;;;9.50;55.00;;;;;;5418941;26;20255;-64
2024/04/10 08:11:30;;;;;;;2.40;2.20;;;9.60;55.70;;;;;;5427067;26;20327;-64
2024/04/10 08:13:56;;;;;;;5.30;2.37;;;9.60;55.80;;;;;;5415943;26;20281;-64
2024/04/10 08:16:24;;;;;;;3.00;1.90;;;9.70;56.10;;;;;;5413247;26;20238;-65
2024/04/10 08:18:50;;;;;;;2.17;1.97;;;9.70;55.50;;;;;;5409798;26;20264;-63
2024/04/10 08:21:18;;;;;;;4.20;2.47;;;9.70;56.30;;;;;;5419050;26;20238;-64
2024/04/10 08:23:44;;;;;;;4.57;2.50;;;9.70;55.60;;;;;;5364504;26;23253;-65
2024/04/10 08:26:12;;;;;;;2.33;1.90;;;9.60;55.90;;;;;;5362249;26;20698;-63
2024/04/10 08:28:39;;;;;;;5.70;2.30;;;9.70;56.30;;;;;;5422296;26;20808;-66
2024/04/10 08:31:07;;;;;;;2.87;2.30;;;9.70;55.60;;;;;;5432549;26;20281;-65
2024/04/10 08:33:33;;;;;;;3.13;2.13;;;9.70;55.90;;;;;;5430064;26;20350;-64
2024/04/10 08:36:02;;;;;;;5.20;2.00;;;9.80;56.00;;;;;;5409570;26;20657;-66
2024/04/10 08:38:28;;;;;;;4.70;2.40;;;9.90;55.10;;;;;;5429024;26;20273;-64
2024/04/10 08:40:58;;;;;;;4.57;2.60;;;9.90;54.30;;;;;;5430980;26;20238;-64
2024/04/10 08:43:25;;;;;;;4.30;2.43;;;9.90;54.60;;;;;;5422534;26;20297;-64
2024/04/10 08:45:53;;;;;;;2.90;2.30;;;9.80;55.10;;;;;;5421414;26;20766;-63
2024/04/10 08:48:19;;;;;;;2.50;2.30;;;9.90;54.30;;;;;;5419610;26;20577;-64
2024/04/10 08:50:47;;;;;;;3.70;2.20;;;9.80;54.70;;;;;;5414384;26;20356;-65
2024/04/10 08:53:13;;;;;;;4.67;2.53;;;10.00;53.10;;;;;;5392960;26;20661;-65
2024/04/10 08:55:41;;;;;;;2.50;2.30;;;10.20;52.20;;;;;;5393769;26;20242;-65
2024/04/10 08:58:07;;;;;;;4.80;2.60;;;10.30;52.90;;;;;;5402670;26;20252;-66
2024/04/10 09:00:36;;;;;;;2.57;2.20;;;10.60;53.60;;;;;;5400352;26;20738;-66
2024/04/10 09:03:01;;;;;;;3.70;2.20;;;10.90;53.30;;;;;;5403866;26;20295;-66
2024/04/10 09:05:29;;;;;;;4.33;2.40;;;11.10;53.00;;;;;;5414521;26;20238;-66
2024/04/10 09:07:55;;;;;;;3.37;2.87;;;11.20;50.40;;;;;;5409596;26;20586;-66
2024/04/10 09:10:23;;;;;;;2.43;2.13;;;11.20;49.40;;;;;;5407172;26;20303;-66
2024/04/10 09:12:49;;;;;;;4.80;2.70;;;11.20;49.50;;;;;;5397924;26;20247;-66
2024/04/10 09:15:19;;;;;;;4.33;2.63;;;11.40;50.30;;;;;;5402411;26;20245;-68
2024/04/10 09:17:45;;;;;;;5.90;2.17;;;11.40;50.10;;;;;;5391041;26;20820;-66
2024/04/10 09:20:16;;;;;;;4.60;2.67;;;11.30;49.40;;;;;;5402120;26;20238;-67
2024/04/10 09:22:42;;;;;;;3.00;2.37;;;11.30;50.20;;;;;;5403105;26;20670;-68
2024/04/10 09:25:10;;;;;;;5.63;2.50;;;11.30;49.70;;;;;;5397494;26;20242;-72
2024/04/10 09:27:36;;;;;;;3.30;2.70;;;11.30;50.20;;;;;;5393278;26;20245;-68
2024/04/10 09:30:05;;;;;;;5.23;2.60;;;11.30;49.50;;;;;;5409433;26;20246;-65
2024/04/10 09:32:30;;;;;;;4.43;2.47;;;11.50;48.70;;;;;;5404834;26;20258;-64
2024/04/10 09:34:58;;;;;;;2.97;2.10;;;11.50;47.80;;;;;;5397723;26;20594;-65
2024/04/10 09:37:24;;;;;;;3.17;2.20;;;11.50;47.80;;;;;;5412068;26;20801;-65
2024/04/10 09:39:52;;;;;;;2.10;1.93;;;11.60;47.30;;;;;;5406077;26;20255;-65
2024/04/10 09:42:18;;;;;;;2.47;2.00;;;11.70;46.70;;;;;;5404963;26;20273;-65
2024/04/10 09:44:46;;;;;;;3.17;2.00;;;11.60;46.30;;;;;;5412732;26;20347;-63
2024/04/10 09:47:12;;;;;;;3.77;2.10;;;11.60;47.10;;;;;;5401308;26;20737;-65
2024/04/10 09:49:41;;;;;;;3.30;2.67;;;11.90;46.40;;;;;;5408271;26;20773;-64
2024/04/10 09:52:06;;;;;;;3.97;2.17;;;11.90;47.10;;;;;;5416050;26;20286;-66
2024/04/10 09:54:35;;;;;;;4.40;2.20;;;11.80;46.60;;;;;;5416020;26;20725;-64
2024/04/10 09:57:00;;;;;;;2.63;2.10;;;11.80;46.40;;;;;;5398949;26;20254;-65
2024/04/10 09:59:28;;;;;;;2.43;2.03;;;11.80;46.10;;;;;;5406224;26;20246;-66
2024/04/10 10:01:55;;;;;;;2.90;2.37;;;11.80;45.90;;;;;;5395485;26;20286;-66
2024/04/10 10:04:24;;;;;;;3.50;2.10;;;11.90;45.10;;;;;;5409077;26;20345;-66
2024/04/10 10:06:49;;;;;;;3.90;2.10;;;11.80;43.90;;;;;;5409898;26;20793;-68
2024/04/10 10:09:17;;;;;;;2.40;2.00;;;11.80;45.00;;;;;;5400662;26;20243;-66
2024/04/10 10:11:43;;;;;;;7.30;2.20;;;11.80;44.20;;;;;;5403768;26;20263;-66
2024/04/10 10:14:14;;;;;;;2.73;2.27;;;12.10;44.30;;;;;;5387479;26;20359;-66
2024/04/10 10:16:40;;;;;;;3.23;1.97;;;12.10;44.50;;;;;;5411508;26;20239;-68
2024/04/10 10:19:08;;;;;;;4.00;2.20;;;12.30;43.80;;;;;;5401395;26;20323;-65
2024/04/10 10:21:33;;;;;;;3.53;2.10;;;12.30;43.90;;;;;;5401564;26;20244;-67
2024/04/10 10:24:02;;;;;;;4.27;2.00;;;12.60;42.80;;;;;;5404215;26;20348;-66
2024/04/10 10:26:27;;;;;;;4.20;2.10;;;12.80;42.40;;;;;;5410072;26;20270;-66
2024/04/10 10:28:56;;;;;;;2.10;1.90;;;13.20;40.30;;;;;;5411498;26;20241;-67
2024/04/10 10:31:21;;;;;;;2.10;1.90;;;13.20;42.70;;;;;;5394150;26;20244;-65
2024/04/10 10:33:51;;;;;;;3.00;1.87;;;12.80;40.60;;;;;;5405250;26;20318;-68
2024/04/10 10:36:16;;;;;;;4.10;1.90;;;12.80;39.80;;;;;;5416854;26;20234;-66
2024/04/10 10:38:44;;;;;;;2.33;1.63;;;13.10;39.80;;;;;;5406725;26;20308;-69
2024/04/10 10:41:10;;;;;;;3.73;2.27;;;13.40;40.40;;;;;;5408741;26;20528;-68
2024/04/10 10:43:38;;;;;;;4.40;1.90;;;13.70;39.20;;;;;;5415204;26;20287;-66
2024/04/10 10:46:04;;;;;;;2.83;1.80;;;13.90;39.00;;;;;;5404763;26;20246;-67
2024/04/10 10:48:32;;;;;;;3.57;1.63;;;14.30;39.10;;;;;;5411352;26;20252;-67
2024/04/10 10:50:58;;;;;;;7.97;2.20;;;14.80;37.90;;;;;;5403376;26;20305;-68
2024/04/10 10:53:26;;;;;;;2.50;1.80;;;14.90;37.30;;;;;;5402589;26;20242;-68
2024/04/10 10:55:52;;;;;;;3.37;1.73;;;14.80;35.70;;;;;;5398144;26;20259;-68
2024/04/10 10:58:20;;;;;;;2.03;1.77;;;14.80;34.70;;;;;;5395217;26;20294;-71
2024/04/10 11:00:46;;;;;;;3.30;1.70;;;15.00;34.60;;;;;;5402556;26;20356;-67
2024/04/10 11:03:16;;;;;;;2.40;1.43;;;15.10;33.50;;;;;;5411752;26;20255;-66
2024/04/10 11:05:42;;;;;;;2.07;1.50;;;15.80;33.60;;;;;;5398142;26;20244;-68
2024/04/10 11:08:10;;;;;;;2.37;1.63;;;16.20;32.50;;;;;;5395907;26;20236;-68
2024/04/10 11:10:35;;;;;;;2.90;1.57;;;16.50;29.70;;;;;;5407444;26;20299;-67
2024/04/10 11:13:04;;;;;;;2.63;1.40;;;16.30;30.60;;;;;;5404525;26;20239;-66
2024/04/10 11:15:30;;;;;;;4.90;1.70;;;17.00;29.80;;;;;;5385416;26;20258;-65
2024/04/10 11:17:58;;;;;;;2.20;1.30;;;17.50;28.60;;;;;;5408794;26;20364;-67
2024/04/10 11:20:24;;;;;;;1.93;1.77;;;15.80;30.80;;;;;;5410074;26;20355;-67
2024/04/10 11:22:52;;;;;;;2.67;1.55;;;16.20;30.30;;;;;;5399654;26;20263;-67
2024/04/10 11:25:17;;;;;;;1.58;1.20;;;17.00;29.90;;;;;;5405669;26;20285;-68
2024/04/10 11:27:46;;;;;;;2.92;1.50;;;17.00;27.90;;;;;;5408391;26;20258;-67
2024/04/10 11:30:11;;;;;;;2.83;1.48;;;16.70;27.80;;;;;;5391292;26;20722;-65
2024/04/10 11:32:40;;;;;;;2.25;1.17;;;18.50;26.30;;;;;;5404991;26;20300;-67
2024/04/10 11:35:05;;;;;;;2.33;1.10;;;19.20;26.50;;;;;;5409581;26;20290;-67
2024/04/10 11:37:33;;;;;;;2.72;1.45;;;20.20;24.90;;;;;;5404887;26;20343;-66
2024/04/10 11:39:59;;;;;;;2.72;1.40;;;21.20;25.60;;;;;;5404803;26;20263;-66
2024/04/10 11:42:29;;;;;;;3.47;1.13;;;20.70;24.60;;;;;;5407775;26;20247;-68
2024/04/10 11:44:54;;;;;;;1.35;1.23;;;21.10;23.50;;;;;;5412096;26;20325;-67
2024/04/10 11:47:23;;;;;;;3.67;1.30;;;21.20;24.40;;;;;;5404383;26;20247;-65
2024/04/10 11:49:48;;;;;;;1.92;1.45;;;21.50;24.00;;;;;;5411725;26;20242;-68
2024/04/10 11:52:17;;;;;;;2.65;1.10;;;21.40;23.60;;;;;;5404849;26;20351;-67
2024/04/10 11:54:43;;;;;;;2.25;1.40;;;20.90;24.50;;;;;;5412355;26;20272;-67
2024/04/10 11:57:11;;;;;;;4.50;1.20;;;21.90;24.50;;;;;;5398366;26;20246;-67
2024/04/10 11:59:37;;;;;;;1.95;1.30;;;19.20;25.40;;;;;;5404348;26;20246;-67
2024/04/10 12:02:05;;;;;;;3.15;1.60;;;17.70;27.90;;;;;;5388513;26;20254;-67
2024/04/10 12:04:31;;;;;;;3.15;1.33;;;16.70;28.50;;;;;;5400281;26;20239;-66
2024/04/10 12:07:00;;;;;;;2.78;1.50;;;15.90;30.00;;;;;;5395720;26;20238;-66
2024/04/10 12:09:25;;;;;;;3.20;1.85;;;15.20;30.30;;;;;;5405351;26;20239;-66
2024/04/10 12:11:54;;;;;;;3.60;1.80;;;16.50;29.30;;;;;;5408656;26;20347;-71
2024/04/10 12:14:19;;;;;;;2.00;1.80;;;15.70;30.70;;;;;;5398048;26;20354;-66
2024/04/10 12:16:48;;;;;;;2.73;1.43;;;17.60;28.10;;;;;;5409337;26;20260;-65
2024/04/10 12:19:13;;;;;;;1.90;1.60;;;18.80;27.80;;;;;;5399051;26;20295;-66
2024/04/10 12:21:42;;;;;;;2.80;1.70;;;19.10;27.20;;;;;;5394691;26;20362;-67
2024/04/10 12:24:07;;;;;;;2.53;1.93;;;18.40;26.60;;;;;;5404535;26;20243;-66
2024/04/10 12:26:35;;;;;;;4.13;1.73;;;17.80;26.80;;;;;;5396867;26;20619;-65
2024/04/10 12:29:01;;;;;;;3.23;1.50;;;17.20;27.00;;;;;;5402762;26;20242;-66
2024/04/10 12:31:29;;;;;;;2.70;1.50;;;16.80;27.90;;;;;;5407899;26;20799;-66
2024/04/10 12:33:55;;;;;;;2.10;1.53;;;16.60;27.50;;;;;;5395786;26;20291;-66
2024/04/10 12:39:09;;;;;;;2.37;1.37;;;16.80;27.60;;;;;;5409642;26;20319;-64
2024/04/10 12:41:38;;;;;;;3.57;2.10;;;16.50;27.70;;;;;;5404199;26;20611;-66
2024/04/10 12:44:06;;;;;;;2.53;1.40;;;16.30;28.60;;;;;;5412732;26;20752;-66
2024/04/10 12:46:31;;;;;;;2.83;1.67;;;16.10;27.50;;;;;;5415604;26;20235;-67
2024/04/10 12:49:01;;;;;;;1.67;1.57;;;15.90;28.20;;;;;;5395918;26;20273;-67
2024/04/10 12:51:26;;;;;;;2.30;1.50;;;15.70;29.90;;;;;;5395015;26;20305;-67
2024/04/10 12:53:54;;;;;;;3.47;1.50;;;15.90;28.80;;;;;;5398611;26;20251;-67
2024/04/10 12:56:20;;;;;;;1.73;1.50;;;15.50;29.90;;;;;;5399085;26;20309;-67